createdAt,value
2022-09-07T00:02:23.475Z,21.30
2022-09-07T00:05:11.338Z,21.30
2022-09-07T00:07:59.399Z,21.30
2022-09-07T00:10:52.371Z,21.40
2022-09-07T00:13:42.223Z,21.40
2022-09-07T00:16:30.929Z,21.40
2022-09-07T00:19:18.833Z,21.40
2022-09-07T00:22:06.753Z,21.50
2022-09-07T00:24:54.628Z,21.50
2022-09-07T00:27:42.518Z,21.50
2022-09-07T00:30:31.772Z,21.50
2022-09-07T00:33:19.609Z,21.30
2022-09-07T00:36:07.925Z,21.40
2022-09-07T00:38:55.766Z,21.50
2022-09-07T00:41:43.595Z,21.50
2022-09-07T00:45:04.961Z,21.40
2022-09-07T00:47:56.948Z,21.40
2022-09-07T00:50:47.230Z,21.40
2022-09-07T00:53:38.229Z,21.40
2022-09-07T00:56:27.449Z,21.30
2022-09-07T00:59:16.346Z,21.40
2022-09-07T01:02:04.648Z,21.30
2022-09-07T01:04:57.420Z,21.30
2022-09-07T01:07:45.554Z,21.20
2022-09-07T01:10:33.662Z,21.00
2022-09-07T01:13:21.817Z,21.10
2022-09-07T01:16:14.095Z,20.80
2022-09-07T01:19:08.642Z,20.70
2022-09-07T01:22:05.386Z,20.70
2022-09-07T01:25:02.450Z,20.70
2022-09-07T01:28:08.314Z,20.70
2022-09-07T01:30:58.500Z,20.80
2022-09-07T01:33:51.870Z,21.00
2022-09-07T01:36:45.117Z,21.00
2022-09-07T01:39:37.425Z,21.00
2022-09-07T01:42:28.572Z,21.00
2022-09-07T01:45:18.787Z,21.10
2022-09-07T01:48:09.440Z,21.10
2022-09-07T01:50:59.250Z,21.00
2022-09-07T01:53:50.686Z,21.10
2022-09-07T01:56:41.685Z,21.00
2022-09-07T01:59:30.838Z,21.00
2022-09-07T02:02:20.546Z,21.00
2022-09-07T02:05:11.183Z,20.90
2022-09-07T02:08:01.431Z,20.70
2022-09-07T02:10:50.607Z,20.50
2022-09-07T02:13:41.350Z,20.30
2022-09-07T02:16:30.159Z,20.20
2022-09-07T02:19:20.118Z,20.20
2022-09-07T02:22:11.389Z,20.10
2022-09-07T02:25:01.176Z,20.00
2022-09-07T02:27:50.835Z,20.10
2022-09-07T02:30:39.075Z,20.20
2022-09-07T02:33:27.292Z,20.10
2022-09-07T02:36:18.032Z,20.00
2022-09-07T02:39:07.250Z,20.00
2022-09-07T02:41:55.228Z,19.90
2022-09-07T02:44:44.683Z,19.80
2022-09-07T02:47:37.602Z,19.80
2022-09-07T02:50:30.761Z,19.70
2022-09-07T02:53:27.571Z,19.70
2022-09-07T02:56:21.256Z,19.70
2022-09-07T02:59:19.401Z,19.70
2022-09-07T03:02:13.021Z,19.70
2022-09-07T03:05:03.235Z,19.70
2022-09-07T03:07:53.905Z,19.60
2022-09-07T03:10:42.496Z,19.60
2022-09-07T03:13:31.674Z,19.60
2022-09-07T03:16:19.556Z,19.70
2022-09-07T03:19:07.459Z,19.70
2022-09-07T03:21:55.283Z,19.70
2022-09-07T03:24:43.506Z,19.60
2022-09-07T03:27:32.039Z,19.50
2022-09-07T03:30:21.475Z,19.40
2022-09-07T03:33:09.370Z,19.50
2022-09-07T03:36:02.377Z,19.60
2022-09-07T03:38:50.183Z,19.60
2022-09-07T03:41:38.000Z,19.60
2022-09-07T03:44:25.765Z,19.60
2022-09-07T03:47:14.937Z,19.70
2022-09-07T03:50:02.798Z,19.60
2022-09-07T03:52:50.617Z,19.60
2022-09-07T03:55:38.457Z,19.60
2022-09-07T03:58:26.397Z,19.60
2022-09-07T04:01:15.850Z,19.60
2022-09-07T04:04:05.275Z,19.40
2022-09-07T04:06:53.146Z,19.60
2022-09-07T04:09:41.010Z,19.50
2022-09-07T04:12:28.942Z,19.50
2022-09-07T04:15:16.770Z,19.50
2022-09-07T04:18:04.597Z,19.40
2022-09-07T04:20:53.865Z,19.30
2022-09-07T04:23:42.323Z,19.30
2022-09-07T04:26:30.987Z,19.30
2022-09-07T04:29:18.875Z,19.20
2022-09-07T04:32:06.764Z,19.00
2022-09-07T04:34:54.624Z,18.90
2022-09-07T04:37:44.593Z,18.80
2022-09-07T04:40:32.454Z,18.80
2022-09-07T04:43:20.289Z,18.70
2022-09-07T04:46:09.675Z,18.70
2022-09-07T04:48:59.163Z,18.70
2022-09-07T04:51:47.294Z,18.70
2022-09-07T04:54:36.505Z,18.80
2022-09-07T04:57:26.548Z,18.80
2022-09-07T05:00:14.858Z,18.90
2022-09-07T05:03:02.772Z,18.80
2022-09-07T05:05:50.717Z,18.90
2022-09-07T05:08:38.850Z,19.00
2022-09-07T05:11:29.739Z,19.00
2022-09-07T05:14:18.003Z,19.00
2022-09-07T05:17:06.040Z,19.00
2022-09-07T05:19:54.867Z,19.00
2022-09-07T05:22:42.738Z,19.00
2022-09-07T05:25:31.499Z,19.00
2022-09-07T05:28:20.707Z,19.00
2022-09-07T05:37:12.273Z,18.90
2022-09-07T05:40:00.265Z,18.90
2022-09-07T05:42:48.224Z,18.90
2022-09-07T05:45:37.511Z,18.90
2022-09-07T05:48:25.449Z,18.90
2022-09-07T05:51:14.057Z,19.00
2022-09-07T05:54:01.935Z,19.00
2022-09-07T05:56:49.887Z,19.00
2022-09-07T05:59:37.891Z,19.00
2022-09-07T06:02:27.117Z,19.00
2022-09-07T06:05:15.138Z,19.00
2022-09-07T06:08:03.109Z,19.00
2022-09-07T06:10:50.961Z,19.00
2022-09-07T06:13:40.043Z,19.00
2022-09-07T06:16:28.151Z,19.10
2022-09-07T06:19:17.444Z,19.10
2022-09-07T06:22:05.335Z,19.10
2022-09-07T06:24:53.178Z,19.10
2022-09-07T06:27:41.007Z,19.10
2022-09-07T06:30:29.450Z,19.10
2022-09-07T06:33:21.402Z,19.10
2022-09-07T06:36:12.639Z,19.10
2022-09-07T06:39:01.503Z,19.10
2022-09-07T06:42:04.901Z,19.10
2022-09-07T06:44:52.773Z,19.20
2022-09-07T06:47:40.781Z,19.20
2022-09-07T06:50:28.791Z,19.20
2022-09-07T06:56:21.357Z,19.20
2022-09-07T06:59:09.245Z,19.10
2022-09-07T07:01:57.200Z,19.10
2022-09-07T07:04:46.543Z,19.10
2022-09-07T07:07:35.225Z,19.20
2022-09-07T07:10:25.104Z,19.30
2022-09-07T07:13:13.121Z,19.40
2022-09-07T07:16:05.898Z,19.50
2022-09-07T07:18:55.933Z,19.60
2022-09-07T07:22:07.718Z,19.70
2022-09-07T07:24:52.003Z,19.70
2022-09-07T07:27:42.331Z,19.80
2022-09-07T07:30:30.214Z,19.90
2022-09-07T07:33:18.050Z,19.90
2022-09-07T07:36:12.875Z,20.00
2022-09-07T07:39:01.489Z,20.10
2022-09-07T07:44:44.896Z,20.30
2022-09-07T07:47:32.872Z,20.30
2022-09-07T07:50:36.264Z,20.40
2022-09-07T07:53:41.648Z,20.40
2022-09-07T07:56:30.184Z,20.50
2022-09-07T07:59:18.019Z,20.60
2022-09-07T08:02:08.880Z,20.70
2022-09-07T08:04:57.076Z,20.70
2022-09-07T08:07:44.890Z,20.80
2022-09-07T08:10:35.870Z,20.90
2022-09-07T08:13:23.638Z,20.90
2022-09-07T08:16:11.803Z,21.00
2022-09-07T08:19:01.166Z,21.10
2022-09-07T08:21:49.006Z,21.20
2022-09-07T08:24:36.851Z,21.20
2022-09-07T08:27:24.628Z,21.30
2022-09-07T08:30:12.542Z,21.40
2022-09-07T08:33:00.330Z,21.50
2022-09-07T08:35:57.195Z,21.60
2022-09-07T08:38:45.013Z,21.70
2022-09-07T08:41:49.421Z,21.80
2022-09-07T08:44:39.980Z,21.80
2022-09-07T08:47:31.651Z,21.90
2022-09-07T08:50:21.208Z,22.00
2022-09-07T08:53:13.661Z,22.00
2022-09-07T08:56:05.097Z,22.10
2022-09-07T08:58:54.166Z,22.20
2022-09-07T09:01:44.081Z,22.30
2022-09-07T09:08:04.548Z,22.40
2022-09-07T09:10:58.162Z,22.50
2022-09-07T09:13:52.160Z,22.60
2022-09-07T09:16:43.640Z,22.70
2022-09-07T09:19:37.832Z,22.70
2022-09-07T09:22:28.518Z,22.80
2022-09-07T09:25:19.019Z,22.80
2022-09-07T09:28:09.320Z,22.90
2022-09-07T09:30:57.285Z,23.00
2022-09-07T09:33:45.160Z,23.10
2022-09-07T09:36:34.375Z,23.20
2022-09-07T09:39:26.358Z,23.30
2022-09-07T09:42:16.070Z,23.40
2022-09-07T09:45:07.294Z,23.50
2022-09-07T09:47:55.510Z,23.50
2022-09-07T09:54:00.554Z,23.80
2022-09-07T09:56:49.077Z,23.90
2022-09-07T10:06:07.735Z,24.20
2022-09-07T10:08:57.382Z,24.30
2022-09-07T10:14:56.484Z,24.60
2022-09-07T10:17:49.814Z,24.60
2022-09-07T10:20:38.751Z,24.70
2022-09-07T10:23:28.409Z,24.80
2022-09-07T10:26:27.264Z,25.00
2022-09-07T10:29:16.575Z,25.10
2022-09-07T10:32:19.477Z,25.20
2022-09-07T10:35:16.303Z,25.30
2022-09-07T10:38:10.564Z,25.50
2022-09-07T10:41:00.895Z,25.60
2022-09-07T10:43:50.365Z,25.70
2022-09-07T10:47:01.175Z,25.80
2022-09-07T10:53:18.319Z,26.20
2022-09-07T10:56:16.363Z,26.20
2022-09-07T10:59:09.057Z,26.10
2022-09-07T11:02:01.290Z,26.10
2022-09-07T11:04:52.726Z,26.30
2022-09-07T11:07:58.569Z,26.40
2022-09-07T11:10:52.389Z,26.70
2022-09-07T11:14:08.986Z,26.80
2022-09-07T11:16:51.924Z,27.00
2022-09-07T11:19:43.167Z,27.20
2022-09-07T11:22:34.319Z,27.30
2022-09-07T11:25:32.618Z,27.30
2022-09-07T11:28:24.194Z,27.30
2022-09-07T11:31:17.659Z,27.20
2022-09-07T11:37:19.618Z,27.30
2022-09-07T11:40:13.708Z,27.30
2022-09-07T11:43:04.680Z,27.30
2022-09-07T11:45:55.539Z,27.30
2022-09-07T11:48:44.949Z,27.10
2022-09-07T11:51:38.690Z,27.00
2022-09-07T11:54:31.923Z,27.10
2022-09-07T11:57:30.511Z,27.00
2022-09-07T12:00:20.161Z,27.10
2022-09-07T12:03:22.672Z,27.30
2022-09-07T12:06:22.408Z,27.40
2022-09-07T12:09:18.170Z,27.40
2022-09-07T12:12:17.665Z,27.50
2022-09-07T12:15:13.593Z,27.50
2022-09-07T12:18:12.922Z,27.50
2022-09-07T12:21:02.143Z,27.40
2022-09-07T12:23:49.960Z,27.40
2022-09-07T12:26:50.147Z,27.30
2022-09-07T12:29:44.973Z,27.30
2022-09-07T12:32:54.333Z,27.20
2022-09-07T12:35:43.990Z,27.10
2022-09-07T12:38:56.026Z,27.00
2022-09-07T12:41:47.353Z,26.90
2022-09-07T12:44:36.084Z,26.90
2022-09-07T12:47:27.980Z,26.90
2022-09-07T12:50:22.645Z,27.00
2022-09-07T12:53:25.054Z,27.30
2022-09-07T12:56:20.723Z,27.40
2022-09-07T12:59:20.409Z,27.60
2022-09-07T13:02:18.138Z,27.70
2022-09-07T13:05:14.434Z,27.80
2022-09-07T13:08:24.379Z,28.00
2022-09-07T13:11:16.854Z,28.00
2022-09-07T13:14:08.799Z,28.00
2022-09-07T13:17:16.466Z,28.00
2022-09-07T13:20:07.427Z,28.00
2022-09-07T13:22:55.954Z,27.80
2022-09-07T13:25:45.582Z,27.70
2022-09-07T13:28:37.771Z,27.60
2022-09-07T13:31:34.305Z,27.60
2022-09-07T13:34:46.060Z,27.90
2022-09-07T13:37:38.293Z,27.80
2022-09-07T13:40:27.055Z,27.80
2022-09-07T13:43:17.018Z,27.80
2022-09-07T13:46:10.444Z,27.70
2022-09-07T13:49:02.199Z,27.90
2022-09-07T13:51:53.127Z,28.00
2022-09-07T13:54:54.906Z,28.00
2022-09-07T13:57:49.863Z,28.10
2022-09-07T14:00:37.784Z,28.30
2022-09-07T14:03:26.890Z,28.30
2022-09-07T14:06:15.939Z,28.40
2022-09-07T14:09:05.508Z,28.60
2022-09-07T14:11:55.084Z,28.70
2022-09-07T14:14:42.895Z,28.90
2022-09-07T14:17:31.299Z,29.00
2022-09-07T14:20:19.290Z,29.10
2022-09-07T14:23:11.730Z,29.10
2022-09-07T14:26:17.542Z,29.00
2022-09-07T14:29:21.905Z,29.10
2022-09-07T14:32:11.740Z,29.20
2022-09-07T14:34:59.611Z,29.20
2022-09-07T14:37:48.039Z,29.20
2022-09-07T14:40:36.798Z,29.30
2022-09-07T14:43:29.135Z,29.30
2022-09-07T14:46:19.977Z,29.30
2022-09-07T14:49:18.237Z,29.20
2022-09-07T14:52:06.308Z,29.00
2022-09-07T14:54:54.357Z,28.90
2022-09-07T14:57:42.160Z,28.70
2022-09-07T15:00:31.491Z,28.60
2022-09-07T15:03:31.676Z,28.50
2022-09-07T15:09:39.981Z,28.30
2022-09-07T15:12:38.220Z,28.40
2022-09-07T15:15:28.273Z,28.40
2022-09-07T15:18:31.105Z,28.40
2022-09-07T15:21:20.380Z,28.30
2022-09-07T15:24:08.276Z,28.20
2022-09-07T15:27:03.657Z,28.10
2022-09-07T15:29:51.731Z,28.00
2022-09-07T15:32:39.626Z,27.80
2022-09-07T15:35:27.778Z,27.60
2022-09-07T15:41:24.812Z,27.60
2022-09-07T15:44:13.852Z,27.40
2022-09-07T15:50:10.357Z,27.30
2022-09-07T15:53:00.862Z,27.10
2022-09-07T15:55:55.136Z,27.00
2022-09-07T15:58:43.927Z,27.00
2022-09-07T16:04:39.881Z,26.80
2022-09-07T16:08:24.936Z,26.70
2022-09-07T16:10:35.527Z,26.70
2022-09-07T16:13:24.783Z,26.60
2022-09-07T16:16:15.687Z,26.50
2022-09-07T16:19:07.233Z,26.40
2022-09-07T16:21:57.590Z,26.30
2022-09-07T16:24:45.745Z,26.30
2022-09-07T16:27:34.023Z,26.20
2022-09-07T16:30:23.183Z,26.20
2022-09-07T16:33:10.972Z,26.20
2022-09-07T16:35:59.683Z,26.10
2022-09-07T16:38:49.060Z,26.00
2022-09-07T16:41:36.930Z,25.90
2022-09-07T16:44:24.743Z,25.80
2022-09-07T16:47:13.986Z,25.60
2022-09-07T16:50:01.798Z,25.60
2022-09-07T16:52:49.622Z,25.50
2022-09-07T16:55:37.462Z,25.30
2022-09-07T16:58:41.741Z,25.30
2022-09-07T17:01:30.845Z,25.30
2022-09-07T17:04:20.132Z,25.10
2022-09-07T17:07:08.083Z,24.90
2022-09-07T17:09:55.853Z,24.80
2022-09-07T17:12:43.754Z,24.80
2022-09-07T17:15:33.579Z,24.70
2022-09-07T17:19:28.863Z,24.70
2022-09-07T17:21:31.266Z,24.60
2022-09-07T17:24:20.855Z,24.40
2022-09-07T17:27:08.896Z,24.40
2022-09-07T17:29:57.017Z,24.30
2022-09-07T17:32:47.152Z,24.20
2022-09-07T17:35:37.402Z,24.00
2022-09-07T17:41:34.530Z,23.80
2022-09-07T17:44:23.233Z,23.70
2022-09-07T17:47:11.217Z,23.70
2022-09-07T17:49:58.973Z,23.60
2022-09-07T17:52:47.113Z,23.50
2022-09-07T17:55:41.518Z,23.40
2022-09-07T17:58:29.582Z,23.30
2022-09-07T18:01:18.701Z,23.30
2022-09-07T18:04:06.542Z,23.30
2022-09-07T18:06:55.783Z,23.40
2022-09-07T18:09:43.622Z,23.30
2022-09-07T18:12:33.082Z,23.10
2022-09-07T18:15:22.104Z,23.00
2022-09-07T18:18:12.470Z,22.90
2022-09-07T18:21:00.243Z,22.80
2022-09-07T18:23:48.623Z,22.70
2022-09-07T18:26:38.377Z,22.60
2022-09-07T18:29:32.518Z,22.60
2022-09-07T18:32:21.574Z,22.60
2022-09-07T18:35:09.918Z,22.50
2022-09-07T18:37:57.920Z,22.50
2022-09-07T18:40:45.745Z,22.40
2022-09-07T18:43:33.732Z,22.40
2022-09-07T18:46:25.341Z,22.30
2022-09-07T18:49:14.782Z,22.30
2022-09-07T18:55:10.989Z,22.20
2022-09-07T18:58:02.766Z,22.10
2022-09-07T19:00:54.716Z,22.10
2022-09-07T19:03:43.993Z,22.00
2022-09-07T19:06:31.834Z,22.00
2022-09-07T19:09:19.695Z,22.00
2022-09-07T19:12:10.003Z,22.00
2022-09-07T19:14:57.919Z,21.90
2022-09-07T19:17:45.739Z,21.90
2022-09-07T19:20:35.630Z,21.70
2022-09-07T19:23:23.434Z,21.70
2022-09-07T19:26:11.349Z,21.70
2022-09-07T19:29:00.310Z,21.60
2022-09-07T19:32:04.034Z,21.60
2022-09-07T19:34:54.547Z,21.60
2022-09-07T19:37:43.692Z,21.50
2022-09-07T19:40:31.446Z,21.50
2022-09-07T19:43:19.301Z,21.50
2022-09-07T19:46:07.256Z,21.40
2022-09-07T19:48:57.425Z,21.40
2022-09-07T19:51:45.235Z,21.40
2022-09-07T19:54:36.360Z,21.40
2022-09-07T19:57:24.212Z,21.30
2022-09-07T20:00:12.963Z,21.30
2022-09-07T20:03:00.882Z,21.20
2022-09-07T20:05:48.683Z,21.20
2022-09-07T20:08:36.506Z,21.20
2022-09-07T20:11:26.052Z,21.20
2022-09-07T20:14:14.086Z,21.20
2022-09-07T20:17:02.418Z,21.10
2022-09-07T20:19:50.990Z,21.00
2022-09-07T20:22:38.996Z,21.00
2022-09-07T20:25:26.848Z,20.90
2022-09-07T20:28:16.074Z,20.90
2022-09-07T20:31:08.246Z,20.80
2022-09-07T20:33:56.279Z,20.80
2022-09-07T20:36:44.406Z,20.70
2022-09-07T20:39:36.981Z,20.80
2022-09-07T20:42:26.916Z,20.80
2022-09-07T20:45:16.176Z,20.70
2022-09-07T20:48:04.276Z,20.70
2022-09-07T20:50:56.330Z,20.70
2022-09-07T20:53:44.131Z,20.70
2022-09-07T20:56:31.963Z,20.60
2022-09-07T20:59:19.757Z,20.50
2022-09-07T21:02:09.775Z,20.50
2022-09-07T21:04:57.798Z,20.50
2022-09-07T21:07:45.619Z,20.50
2022-09-07T21:10:33.571Z,20.40
2022-09-07T21:13:21.391Z,20.40
2022-09-07T21:16:09.806Z,20.30
2022-09-07T21:18:59.682Z,20.30
2022-09-07T21:21:47.444Z,20.30
2022-09-07T21:24:35.253Z,20.30
2022-09-07T21:27:23.035Z,20.20
2022-09-07T21:30:11.367Z,20.20
2022-09-07T21:33:02.913Z,20.20
2022-09-07T21:35:53.211Z,20.20
2022-09-07T21:38:41.955Z,20.20
2022-09-07T21:41:29.769Z,20.20
2022-09-07T21:44:17.636Z,20.20
2022-09-07T21:47:05.596Z,20.10
2022-09-07T21:49:53.535Z,20.20
2022-09-07T21:52:42.701Z,20.10
2022-09-07T21:55:30.478Z,20.10
2022-09-07T21:58:18.278Z,20.00
2022-09-07T22:01:10.627Z,20.00
2022-09-07T22:03:59.301Z,20.00
2022-09-07T22:06:47.109Z,20.00
2022-09-07T22:09:36.315Z,20.00
2022-09-07T22:12:24.325Z,20.00
2022-09-07T22:15:12.160Z,19.90
2022-09-07T22:18:00.208Z,19.80
2022-09-07T22:20:47.984Z,19.80
2022-09-07T22:23:36.823Z,19.80
2022-09-07T22:26:26.924Z,19.70
2022-09-07T22:29:14.805Z,19.70
2022-09-07T22:32:02.809Z,19.60
2022-09-07T22:34:51.622Z,19.60
2022-09-07T22:37:39.411Z,19.60
2022-09-07T22:40:27.253Z,19.60
2022-09-07T22:43:16.409Z,19.50
2022-09-07T22:46:04.265Z,19.40
2022-09-07T22:48:54.343Z,19.40
2022-09-07T22:51:42.254Z,19.40
2022-09-07T22:54:30.181Z,19.30
2022-09-07T22:57:18.944Z,19.20
2022-09-07T23:00:09.224Z,19.20
2022-09-07T23:02:57.068Z,19.20
2022-09-07T23:05:44.862Z,19.20
2022-09-07T23:08:32.803Z,19.10
2022-09-07T23:11:20.747Z,19.10
2022-09-07T23:14:09.649Z,19.20
2022-09-07T23:16:58.785Z,19.10
2022-09-07T23:19:46.574Z,19.10
2022-09-07T23:22:34.591Z,19.10
2022-09-07T23:25:22.643Z,19.10
2022-09-07T23:28:11.977Z,19.10
2022-09-07T23:31:00.055Z,19.00
2022-09-07T23:33:49.402Z,19.00
2022-09-07T23:36:37.647Z,19.00
2022-09-07T23:39:25.491Z,18.90
2022-09-07T23:42:13.292Z,18.90
2022-09-07T23:45:01.389Z,18.90
2022-09-07T23:47:49.166Z,18.90
2022-09-07T23:50:38.298Z,18.90
2022-09-07T23:53:26.209Z,18.90
2022-09-07T23:56:14.162Z,18.80
2022-09-07T23:59:01.977Z,18.80
